Time;durP1;ratioP1;P1;durP2;ratioP2;P2;SDS_P1;SDS_P2;PMS_P1;PMS_P2;Temp;Humidity;BMP_temperature;BMP_pressure;BME280_temperature;BME280_humidity;BME280_pressure;Samples;Min_cycle;Max_cycle;Signal;HPM_P1;HPM_P2
2023/05/18 00:02:22;;;;;;;7.45;2.10;;;5.30;99.90;;;;;;5049455;28;20090;-66
2023/05/18 00:04:48;;;;;;;6.15;2.50;;;5.30;99.90;;;;;;5049176;28;20399;-60
2023/05/18 00:07:14;;;;;;;7.00;2.25;;;5.30;99.90;;;;;;5050388;28;20044;-63
2023/05/18 00:09:40;;;;;;;5.95;1.98;;;5.30;99.90;;;;;;5049489;28;20099;-61
2023/05/18 00:12:07;;;;;;;5.72;1.92;;;5.30;99.90;;;;;;5049485;28;20128;-62
2023/05/18 00:14:33;;;;;;;6.05;2.20;;;5.30;99.90;;;;;;5049738;28;20048;-61
2023/05/18 00:17:02;;;;;;;5.28;2.38;;;5.20;99.90;;;;;;5050979;28;20044;-63
2023/05/18 00:19:28;;;;;;;8.70;2.00;;;5.20;99.90;;;;;;5050775;28;20049;-63
2023/05/18 00:21:54;;;;;;;7.57;1.95;;;5.20;99.90;;;;;;5050990;28;20041;-62
2023/05/18 00:24:20;;;;;;;5.68;2.30;;;5.20;99.90;;;;;;5049675;28;20075;-63
2023/05/18 00:26:48;;;;;;;6.38;2.28;;;5.10;99.90;;;;;;5051257;28;20377;-62
2023/05/18 00:29:14;;;;;;;7.07;2.53;;;5.10;99.90;;;;;;5050839;28;20119;-64
2023/05/18 00:31:41;;;;;;;5.95;1.80;;;5.10;99.90;;;;;;5050862;28;20120;-60
2023/05/18 00:34:11;;;;;;;4.57;2.00;;;5.10;99.90;;;;;;5049616;28;20040;-63
2023/05/18 00:36:38;;;;;;;5.03;2.03;;;5.10;99.90;;;;;;5049379;28;20043;-63
2023/05/18 00:39:05;;;;;;;6.47;2.13;;;5.00;99.90;;;;;;5049424;28;20033;-61
2023/05/18 00:41:31;;;;;;;6.03;2.42;;;5.00;99.90;;;;;;5050673;28;20400;-61
2023/05/18 00:43:57;;;;;;;8.25;2.40;;;5.00;99.90;;;;;;5049356;28;20037;-61
2023/05/18 00:46:24;;;;;;;7.32;2.05;;;5.00;99.90;;;;;;5050501;28;20483;-62
2023/05/18 00:48:51;;;;;;;7.43;2.05;;;4.90;99.90;;;;;;5032738;28;20052;-62
2023/05/18 00:51:19;;;;;;;8.90;2.58;;;4.90;99.90;;;;;;5048920;28;20052;-60
2023/05/18 00:53:46;;;;;;;6.38;1.88;;;4.90;99.90;;;;;;5066180;28;20484;-61
2023/05/18 00:56:12;;;;;;;4.20;1.73;;;4.90;99.90;;;;;;5049193;28;20065;-62
2023/05/18 00:58:40;;;;;;;6.60;2.17;;;4.90;99.90;;;;;;5049073;28;20491;-62
2023/05/18 01:01:05;;;;;;;6.72;2.33;;;4.80;99.90;;;;;;5048947;28;20069;-63
2023/05/18 01:03:38;;;;;;;4.97;1.98;;;4.80;99.90;;;;;;5049060;28;20045;-62
2023/05/18 01:06:04;;;;;;;;;;;4.80;99.90;;;;;;5049390;28;20064;-60
2023/05/18 01:08:30;;;;;;;4.28;1.77;;;4.70;99.90;;;;;;5050329;28;20293;-62
2023/05/18 01:11:24;;;;;;;9.88;1.95;;;4.70;99.90;;;;;;5050513;28;20614;-65
2023/05/18 01:13:56;;;;;;;6.43;1.95;;;4.70;99.90;;;;;;5048803;28;20442;-61
2023/05/18 01:16:27;;;;;;;5.72;1.80;;;4.70;99.90;;;;;;5049237;28;20068;-63
2023/05/18 01:19:16;;;;;;;3.50;1.92;;;4.60;99.90;;;;;;5048982;28;20077;-64
2023/05/18 01:21:56;;;;;;;5.75;2.00;;;4.60;99.90;;;;;;5011149;28;20436;-62
2023/05/18 01:24:42;;;;;;;4.15;1.95;;;4.60;99.90;;;;;;5027981;28;20565;-64
2023/05/18 01:27:08;;;;;;;5.95;2.00;;;4.60;99.90;;;;;;5028008;28;20061;-60
2023/05/18 01:29:34;;;;;;;9.18;2.38;;;4.60;99.90;;;;;;5010999;28;20049;-62
2023/05/18 01:32:00;;;;;;;6.03;2.20;;;4.50;99.90;;;;;;5028073;28;20040;-62
2023/05/18 01:34:26;;;;;;;6.63;2.05;;;4.50;99.90;;;;;;5027919;28;20518;-62
2023/05/18 01:36:52;;;;;;;5.70;2.05;;;4.50;99.90;;;;;;5011614;28;20037;-62
2023/05/18 01:39:18;;;;;;;5.38;2.10;;;4.40;99.90;;;;;;5011256;28;20081;-61
2023/05/18 01:42:06;;;;;;;4.45;2.10;;;4.40;99.90;;;;;;5027622;28;20044;-62
2023/05/18 01:44:57;;;;;;;5.07;2.13;;;4.40;99.90;;;;;;5011184;28;20049;-62
2023/05/18 01:47:24;;;;;;;3.85;1.95;;;4.40;99.90;;;;;;5011311;28;20049;-62
2023/05/18 01:50:04;;;;;;;9.32;2.08;;;4.40;99.90;;;;;;5011419;28;20448;-64
2023/05/18 01:52:48;;;;;;;3.60;1.83;;;4.30;99.90;;;;;;5010965;28;20045;-59
2023/05/18 01:55:16;;;;;;;5.45;2.30;;;4.30;99.90;;;;;;5011296;28;20048;-62
2023/05/18 01:57:45;;;;;;;5.85;2.13;;;4.30;99.90;;;;;;5028346;28;20439;-62
2023/05/18 02:00:11;;;;;;;4.72;2.05;;;4.30;99.90;;;;;;5049811;28;20450;-62
2023/05/18 02:02:37;;;;;;;6.45;2.28;;;4.30;99.90;;;;;;5051145;28;20137;-62
2023/05/18 02:05:04;;;;;;;4.97;2.00;;;4.30;99.90;;;;;;5052638;28;20196;-62
2023/05/18 02:07:30;;;;;;;6.22;2.38;;;4.30;99.90;;;;;;5035993;28;21299;-60
2023/05/18 02:09:56;;;;;;;5.22;2.22;;;4.20;99.90;;;;;;5053766;28;20155;-61
2023/05/18 02:12:21;;;;;;;7.22;1.92;;;4.20;99.90;;;;;;5053713;28;20048;-61
2023/05/18 02:14:47;;;;;;;5.25;2.47;;;4.20;99.90;;;;;;5051962;28;20094;-62
2023/05/18 02:17:13;;;;;;;7.10;2.53;;;4.20;99.90;;;;;;5052115;28;20381;-63
2023/05/18 02:19:38;;;;;;;6.97;1.98;;;4.20;99.90;;;;;;5053064;28;20412;-60
2023/05/18 02:22:05;;;;;;;5.13;2.03;;;4.20;99.90;;;;;;5053570;28;20118;-63
2023/05/18 02:24:32;;;;;;;6.63;1.92;;;4.10;99.90;;;;;;5035750;28;20053;-62
2023/05/18 02:26:57;;;;;;;5.93;2.35;;;4.10;99.90;;;;;;5035472;28;20502;-62
2023/05/18 02:29:23;;;;;;;6.13;2.80;;;4.00;99.90;;;;;;5053351;28;20045;-61
2023/05/18 02:31:49;;;;;;;6.45;2.20;;;4.00;99.90;;;;;;5051616;28;20033;-61
2023/05/18 02:34:15;;;;;;;6.32;2.30;;;4.00;99.90;;;;;;5051940;28;20041;-62
2023/05/18 02:36:41;;;;;;;5.00;2.10;;;4.00;99.90;;;;;;5053098;28;20044;-62
2023/05/18 02:39:08;;;;;;;4.93;2.10;;;4.00;99.90;;;;;;5053194;28;20033;-63
2023/05/18 02:41:35;;;;;;;8.48;2.90;;;4.00;99.90;;;;;;5051647;28;20033;-64
2023/05/18 02:44:02;;;;;;;6.18;2.40;;;4.00;99.90;;;;;;5052791;28;20075;-62
2023/05/18 02:46:28;;;;;;;5.72;2.20;;;4.00;99.90;;;;;;5053084;28;20064;-62
2023/05/18 02:48:53;;;;;;;5.07;2.00;;;4.00;99.90;;;;;;5052742;28;20452;-61
2023/05/18 02:51:20;;;;;;;4.60;1.83;;;4.00;99.90;;;;;;5051470;28;20124;-62
2023/05/18 02:53:46;;;;;;;7.63;2.00;;;3.90;99.90;;;;;;5051391;28;20076;-63
2023/05/18 02:56:12;;;;;;;5.03;2.25;;;3.90;99.90;;;;;;5052658;28;20033;-62
2023/05/18 02:58:38;;;;;;;4.07;2.03;;;3.80;99.90;;;;;;5051590;28;20040;-63
2023/05/18 03:01:08;;;;;;;3.28;1.85;;;3.80;99.90;;;;;;5051210;28;20076;-61
2023/05/18 03:03:34;;;;;;;5.72;2.00;;;3.80;99.90;;;;;;5052650;28;20056;-60
2023/05/18 03:06:04;;;;;;;7.18;2.00;;;3.80;99.90;;;;;;5051057;28;20037;-61
2023/05/18 03:08:30;;;;;;;4.85;1.80;;;3.80;99.90;;;;;;5051334;28;20470;-61
2023/05/18 03:10:57;;;;;;;7.30;2.30;;;3.70;99.90;;;;;;5051115;28;20045;-62
2023/05/18 03:13:23;;;;;;;7.25;2.28;;;3.70;99.90;;;;;;5051776;28;20120;-60
2023/05/18 03:15:49;;;;;;;2.75;1.75;;;3.80;99.90;;;;;;5051892;28;20080;-61
2023/05/18 03:18:16;;;;;;;5.03;2.25;;;3.80;99.90;;;;;;5052285;28;20048;-62
2023/05/18 03:20:43;;;;;;;5.60;2.35;;;3.80;99.90;;;;;;5050734;28;20057;-61
2023/05/18 03:23:08;;;;;;;6.18;3.15;;;3.80;99.90;;;;;;5052056;28;20045;-62
2023/05/18 03:25:36;;;;;;;4.60;2.20;;;3.80;99.90;;;;;;5052062;28;20032;-63
2023/05/18 03:28:03;;;;;;;8.68;2.30;;;3.90;99.90;;;;;;5050640;28;20056;-62
2023/05/18 03:30:31;;;;;;;5.57;2.55;;;3.90;99.90;;;;;;5052083;28;20106;-60
2023/05/18 03:32:58;;;;;;;6.07;2.58;;;3.90;99.90;;;;;;5051091;28;20123;-62
2023/05/18 03:35:24;;;;;;;7.35;2.40;;;3.90;99.90;;;;;;5052173;28;20476;-61
2023/05/18 03:37:49;;;;;;;5.07;2.20;;;4.00;99.90;;;;;;5051705;28;20049;-62
2023/05/18 03:40:15;;;;;;;4.95;2.10;;;3.90;99.90;;;;;;5050585;28;20089;-63
2023/05/18 03:42:42;;;;;;;4.65;2.08;;;4.00;99.90;;;;;;5050896;28;20099;-62
2023/05/18 03:45:08;;;;;;;5.40;2.40;;;4.00;99.90;;;;;;5050415;28;20048;-62
2023/05/18 03:47:35;;;;;;;5.35;2.15;;;4.00;99.90;;;;;;5050425;28;20047;-60
2023/05/18 03:50:01;;;;;;;5.28;2.10;;;4.00;99.90;;;;;;5050432;28;20055;-62
2023/05/18 03:52:28;;;;;;;6.05;2.08;;;4.00;99.90;;;;;;5050772;28;20503;-59
2023/05/18 03:54:55;;;;;;;7.60;2.30;;;4.00;99.90;;;;;;5050068;28;20048;-62
2023/05/18 03:57:21;;;;;;;3.65;2.00;;;4.00;99.90;;;;;;5033581;28;20076;-60
2023/05/18 03:59:46;;;;;;;6.22;2.50;;;4.10;99.90;;;;;;5050268;28;20138;-60
2023/05/18 04:02:12;;;;;;;4.28;2.53;;;4.10;99.90;;;;;;5049966;28;20072;-62
2023/05/18 04:04:44;;;;;;;3.83;1.98;;;4.10;99.90;;;;;;5050195;28;20388;-63
2023/05/18 04:07:10;;;;;;;6.85;2.40;;;4.10;99.90;;;;;;5049768;28;20511;-60
2023/05/18 04:09:37;;;;;;;5.03;2.40;;;4.10;99.90;;;;;;5051655;28;20060;-60
2023/05/18 04:12:02;;;;;;;6.47;2.55;;;4.10;99.90;;;;;;5051321;28;20033;-62
2023/05/18 04:14:31;;;;;;;5.60;2.30;;;4.20;99.90;;;;;;5050178;28;20103;-62
2023/05/18 04:17:03;;;;;;;6.82;3.17;;;4.10;99.90;;;;;;5050045;28;20048;-62
2023/05/18 04:19:33;;;;;;;5.77;2.03;;;4.10;99.90;;;;;;5050052;28;20154;-60
2023/05/18 04:21:59;;;;;;;4.95;2.42;;;4.20;99.90;;;;;;5050209;28;20776;-60
2023/05/18 04:24:27;;;;;;;5.38;2.30;;;4.20;99.90;;;;;;5051146;28;20480;-61
2023/05/18 04:26:53;;;;;;;4.38;2.30;;;4.20;99.90;;;;;;5050941;28;20036;-61
2023/05/18 04:29:20;;;;;;;3.55;2.40;;;4.20;99.90;;;;;;5049684;28;20547;-64
2023/05/18 04:31:48;;;;;;;6.25;2.30;;;4.20;99.90;;;;;;5049900;28;20407;-60
2023/05/18 04:34:16;;;;;;;5.35;2.40;;;4.20;99.90;;;;;;5050610;28;20044;-61
2023/05/18 04:36:43;;;;;;;5.25;2.50;;;4.30;99.90;;;;;;5050840;28;20037;-63
2023/05/18 04:39:09;;;;;;;5.47;2.85;;;4.30;99.90;;;;;;5050706;28;20044;-62
2023/05/18 04:41:36;;;;;;;5.53;2.70;;;4.40;99.90;;;;;;5049383;28;20033;-61
2023/05/18 04:44:02;;;;;;;4.47;2.83;;;4.40;99.90;;;;;;5049616;28;20037;-63
2023/05/18 04:46:28;;;;;;;6.50;2.50;;;4.50;99.90;;;;;;5066270;28;20041;-62
2023/05/18 04:48:56;;;;;;;7.18;2.92;;;4.50;99.90;;;;;;5049247;28;20039;-61
2023/05/18 04:51:23;;;;;;;6.15;2.65;;;4.60;99.90;;;;;;5050617;28;20151;-62
2023/05/18 04:53:54;;;;;;;6.55;3.58;;;4.60;99.90;;;;;;5049314;28;20041;-63
2023/05/18 04:56:21;;;;;;;6.15;2.72;;;4.60;99.90;;;;;;5049123;28;20049;-60
2023/05/18 04:58:47;;;;;;;5.43;2.60;;;4.60;99.90;;;;;;5050317;28;20116;-63
2023/05/18 05:01:14;;;;;;;4.65;2.85;;;4.70;99.90;;;;;;5049053;28;20080;-63
2023/05/18 05:03:43;;;;;;;7.18;3.10;;;4.80;99.90;;;;;;5050731;28;20041;-62
2023/05/18 05:06:09;;;;;;;6.78;2.88;;;4.80;99.90;;;;;;5050705;28;20501;-62
2023/05/18 05:08:36;;;;;;;4.88;2.67;;;4.80;99.90;;;;;;5049122;28;20072;-63
2023/05/18 05:11:03;;;;;;;6.75;3.25;;;4.90;99.90;;;;;;5050545;28;20120;-61
2023/05/18 05:13:28;;;;;;;6.82;3.40;;;5.00;99.90;;;;;;5048888;28;20036;-59
2023/05/18 05:15:54;;;;;;;8.30;3.00;;;5.00;99.90;;;;;;5050219;28;20048;-62
2023/05/18 05:18:20;;;;;;;8.02;3.22;;;5.10;99.90;;;;;;5050069;28;20064;-62
2023/05/18 05:20:46;;;;;;;6.15;3.00;;;5.20;99.90;;;;;;5050197;28;20047;-62
2023/05/18 05:23:12;;;;;;;6.70;3.30;;;5.30;99.90;;;;;;5050447;28;20079;-60
2023/05/18 05:25:38;;;;;;;12.65;3.90;;;5.40;99.90;;;;;;5048714;28;20065;-61
2023/05/18 05:28:03;;;;;;;9.13;3.38;;;5.50;99.90;;;;;;5050301;28;20036;-62
2023/05/18 05:30:29;;;;;;;7.20;3.42;;;5.60;99.90;;;;;;5048627;28;20179;-62
2023/05/18 05:32:55;;;;;;;8.40;3.97;;;5.70;99.90;;;;;;5048211;28;20045;-62
2023/05/18 05:35:20;;;;;;;10.90;3.78;;;5.80;99.90;;;;;;5048739;28;20236;-60
2023/05/18 05:37:46;;;;;;;7.18;3.42;;;5.90;99.90;;;;;;5051635;28;20117;-60
2023/05/18 05:40:12;;;;;;;8.30;3.85;;;6.00;99.90;;;;;;5052894;28;20537;-62
2023/05/18 05:42:38;;;;;;;7.18;3.60;;;6.20;99.90;;;;;;5035955;28;20072;-60
2023/05/18 05:45:04;;;;;;;8.65;4.10;;;6.30;99.90;;;;;;5052885;28;20041;-62
2023/05/18 05:47:30;;;;;;;7.75;3.88;;;6.50;99.90;;;;;;5053957;28;20077;-64
2023/05/18 05:49:56;;;;;;;11.27;4.15;;;6.60;99.90;;;;;;5054249;28;20091;-63
2023/05/18 05:52:21;;;;;;;8.48;4.05;;;6.70;99.90;;;;;;5054066;28;20084;-62
2023/05/18 05:54:47;;;;;;;9.43;3.78;;;6.90;99.90;;;;;;5052436;28;20119;-61
2023/05/18 05:57:13;;;;;;;10.55;4.20;;;7.00;99.90;;;;;;5053845;28;20052;-62
2023/05/18 05:59:38;;;;;;;7.15;3.15;;;7.10;99.90;;;;;;5052335;28;20033;-61
2023/05/18 06:02:04;;;;;;;8.25;3.20;;;7.20;99.90;;;;;;5052959;28;20033;-60
2023/05/18 06:04:29;;;;;;;8.93;2.88;;;7.40;99.90;;;;;;5052311;28;20025;-62
2023/05/18 06:06:56;;;;;;;8.98;2.83;;;7.50;99.90;;;;;;5069025;28;20408;-62
2023/05/18 06:09:21;;;;;;;8.38;2.90;;;7.60;99.90;;;;;;5053603;28;20055;-60
2023/05/18 06:11:47;;;;;;;10.68;2.70;;;7.80;99.90;;;;;;5052332;28;20458;-62
2023/05/18 06:14:13;;;;;;;7.55;2.67;;;7.90;99.90;;;;;;5053518;28;20120;-60
2023/05/18 06:16:38;;;;;;;7.40;2.50;;;8.00;99.90;;;;;;5051964;28;20048;-64
2023/05/18 06:19:04;;;;;;;8.68;2.35;;;8.10;99.90;;;;;;5052235;28;20036;-62
2023/05/18 06:21:30;;;;;;;7.18;2.17;;;8.30;99.90;;;;;;5051972;28;20045;-60
2023/05/18 06:23:56;;;;;;;5.95;2.28;;;8.40;99.90;;;;;;5052051;28;20082;-62
2023/05/18 06:26:22;;;;;;;6.25;2.40;;;8.50;99.90;;;;;;5053359;28;20037;-60
2023/05/18 06:28:48;;;;;;;10.45;2.60;;;8.60;99.90;;;;;;5052074;28;20049;-62
2023/05/18 06:31:15;;;;;;;8.38;2.33;;;8.70;99.90;;;;;;5051995;28;20113;-63
2023/05/18 06:33:41;;;;;;;9.82;2.35;;;8.80;99.90;;;;;;5053204;28;20120;-61
2023/05/18 06:36:07;;;;;;;6.03;2.45;;;8.90;99.90;;;;;;5053327;28;20156;-61
2023/05/18 06:38:33;;;;;;;6.20;2.53;;;9.00;99.90;;;;;;5052891;28;20488;-61
2023/05/18 06:40:58;;;;;;;5.22;2.28;;;9.20;99.90;;;;;;5053195;28;20966;-63
2023/05/18 06:43:25;;;;;;;6.35;1.95;;;9.30;99.90;;;;;;5051918;28;20035;-61
2023/05/18 06:45:51;;;;;;;10.57;2.97;;;9.30;99.90;;;;;;5051506;28;20124;-62
2023/05/18 06:48:17;;;;;;;10.00;2.30;;;9.40;99.90;;;;;;5051536;28;20203;-60
2023/05/18 06:50:42;;;;;;;6.25;2.00;;;9.40;99.90;;;;;;5051471;28;20040;-62
2023/05/18 06:53:08;;;;;;;6.45;1.98;;;9.50;99.90;;;;;;5051973;28;20037;-60
2023/05/18 06:55:34;;;;;;;7.45;2.05;;;9.70;99.90;;;;;;5051424;28;20040;-61
2023/05/18 06:58:01;;;;;;;7.28;2.08;;;9.80;99.90;;;;;;5052449;28;20095;-63
2023/05/18 07:00:27;;;;;;;6.15;1.70;;;9.80;99.90;;;;;;5052626;28;20041;-63
2023/05/18 07:02:52;;;;;;;6.78;1.90;;;9.90;99.90;;;;;;5051146;28;20083;-63
2023/05/18 07:05:18;;;;;;;7.25;1.77;;;9.90;99.90;;;;;;5051714;28;20493;-62
2023/05/18 07:07:43;;;;;;;9.23;2.33;;;10.00;99.90;;;;;;5052473;28;20047;-62
2023/05/18 07:10:09;;;;;;;5.88;1.90;;;10.00;99.90;;;;;;5051327;28;20044;-62
2023/05/18 07:12:35;;;;;;;9.13;2.38;;;10.10;99.90;;;;;;5034447;28;20115;-63
2023/05/18 07:15:01;;;;;;;7.45;1.90;;;10.20;99.90;;;;;;5050987;28;20102;-61
2023/05/18 07:17:26;;;;;;;5.30;1.60;;;10.20;99.90;;;;;;5052406;28;20515;-60
2023/05/18 07:19:52;;;;;;;6.35;1.55;;;10.20;99.90;;;;;;5050772;28;20484;-60
2023/05/18 07:22:18;;;;;;;7.97;1.70;;;10.20;99.90;;;;;;5051025;28;20492;-62
2023/05/18 07:24:43;;;;;;;7.57;1.83;;;10.30;99.90;;;;;;5051037;28;20391;-62
2023/05/18 07:27:09;;;;;;;8.23;2.20;;;10.30;99.90;;;;;;5034077;28;20048;-62
2023/05/18 07:29:35;;;;;;;6.93;2.03;;;10.40;99.90;;;;;;5034190;28;20073;-61
2023/05/18 07:32:00;;;;;;;6.78;1.75;;;10.40;99.90;;;;;;5051881;28;20037;-62
2023/05/18 07:34:26;;;;;;;5.85;2.08;;;10.40;99.90;;;;;;5052267;28;20021;-62
2023/05/18 07:36:52;;;;;;;4.90;1.50;;;10.60;99.90;;;;;;5064478;28;20052;-62
2023/05/18 07:39:18;;;;;;;9.73;2.13;;;10.60;99.90;;;;;;5050746;28;20045;-62
2023/05/18 07:41:48;;;;;;;6.95;1.90;;;10.60;99.90;;;;;;5050669;28;20043;-64
2023/05/18 07:44:14;;;;;;;6.65;1.60;;;10.60;99.90;;;;;;5052040;28;20040;-60
2023/05/18 07:46:40;;;;;;;7.90;2.60;;;10.70;99.90;;;;;;5052150;28;20519;-62
2023/05/18 07:49:06;;;;;;;5.85;2.15;;;10.70;99.90;;;;;;5051844;28;20340;-60
2023/05/18 07:51:33;;;;;;;5.90;1.73;;;10.80;99.90;;;;;;5051828;28;20503;-62
2023/05/18 07:53:58;;;;;;;6.43;1.85;;;11.00;99.90;;;;;;5050544;28;20033;-63
2023/05/18 07:56:24;;;;;;;6.80;2.03;;;11.10;99.90;;;;;;5051635;28;20123;-61
2023/05/18 07:58:50;;;;;;;6.85;1.75;;;11.10;99.90;;;;;;5050164;28;20087;-61
2023/05/18 08:01:16;;;;;;;7.65;1.88;;;11.10;99.90;;;;;;5049279;28;20083;-63
2023/05/18 08:03:42;;;;;;;5.35;1.60;;;11.10;99.90;;;;;;5050249;28;20037;-60
2023/05/18 08:06:07;;;;;;;9.65;2.17;;;11.20;99.90;;;;;;5051289;28;20037;-62
2023/05/18 08:08:36;;;;;;;6.47;1.60;;;11.20;99.90;;;;;;5067055;28;20124;-64
2023/05/18 08:11:03;;;;;;;5.25;1.50;;;11.30;99.90;;;;;;5051087;28;20036;-63
2023/05/18 08:13:29;;;;;;;9.13;1.65;;;11.50;99.90;;;;;;5050254;28;20041;-62
2023/05/18 08:15:55;;;;;;;3.85;1.55;;;11.70;99.90;;;;;;5049981;28;20049;-60
2023/05/18 08:18:21;;;;;;;5.03;1.70;;;11.80;99.90;;;;;;5051244;28;20079;-63
2023/05/18 08:20:48;;;;;;;8.13;1.65;;;11.80;99.90;;;;;;5050685;28;20101;-63
2023/05/18 08:23:14;;;;;;;6.95;1.58;;;11.80;99.90;;;;;;5049789;28;20045;-60
2023/05/18 08:25:40;;;;;;;5.90;1.80;;;11.80;99.90;;;;;;5049694;28;20032;-62
2023/05/18 08:28:06;;;;;;;6.82;1.60;;;12.00;99.90;;;;;;5051109;28;20503;-61
2023/05/18 08:30:31;;;;;;;9.90;1.90;;;12.10;99.90;;;;;;5050910;28;20045;-62
2023/05/18 08:32:57;;;;;;;9.13;2.10;;;12.30;99.90;;;;;;5050878;28;20048;-63
2023/05/18 08:35:23;;;;;;;4.80;1.48;;;12.60;99.90;;;;;;5049482;28;20044;-62
2023/05/18 08:37:49;;;;;;;5.45;2.10;;;13.00;99.90;;;;;;5049673;28;20049;-62
2023/05/18 08:40:15;;;;;;;7.82;1.40;;;13.10;99.90;;;;;;5032595;28;20441;-61
2023/05/18 08:42:43;;;;;;;6.25;1.50;;;13.10;99.90;;;;;;5051162;28;20112;-61
2023/05/18 08:45:34;;;;;;;9.55;2.42;;;13.10;99.70;;;;;;5049327;28;20044;-61
2023/05/18 08:48:02;;;;;;;7.55;1.90;;;13.00;98.80;;;;;;5050766;28;20032;-62
2023/05/18 08:50:31;;;;;;;7.18;1.80;;;12.80;99.20;;;;;;5050538;28;20399;-62
2023/05/18 08:53:01;;;;;;;5.45;1.52;;;12.90;99.50;;;;;;5049795;28;20456;-62
2023/05/18 08:55:27;;;;;;;7.25;2.03;;;13.10;99.60;;;;;;5049196;28;20116;-61
2023/05/18 08:57:56;;;;;;;6.00;1.67;;;13.40;99.50;;;;;;5049319;28;20045;-59
2023/05/18 09:00:25;;;;;;;5.15;1.63;;;13.80;98.90;;;;;;5049085;28;20049;-61
2023/05/18 09:02:51;;;;;;;9.13;1.60;;;14.00;98.60;;;;;;5050533;28;20029;-61
2023/05/18 09:05:17;;;;;;;5.72;1.55;;;14.20;97.80;;;;;;5050274;28;20044;-63
2023/05/18 09:07:44;;;;;;;5.68;1.50;;;14.30;97.70;;;;;;5050803;28;20438;-63
2023/05/18 09:10:12;;;;;;;7.32;2.03;;;14.50;97.40;;;;;;5050365;28;20099;-62
2023/05/18 09:12:40;;;;;;;6.45;2.15;;;14.50;96.80;;;;;;5049214;28;20119;-62
2023/05/18 09:15:08;;;;;;;6.55;2.17;;;14.40;96.70;;;;;;5048787;28;20055;-63
2023/05/18 09:17:34;;;;;;;5.10;1.50;;;14.40;96.50;;;;;;5050043;28;20115;-62
2023/05/18 09:20:00;;;;;;;6.93;1.92;;;14.40;96.40;;;;;;5048814;28;20583;-61
2023/05/18 09:22:26;;;;;;;6.80;1.83;;;14.30;95.60;;;;;;5050361;28;20037;-62
2023/05/18 09:24:52;;;;;;;5.15;1.60;;;14.30;95.00;;;;;;5050250;28;20041;-62
2023/05/18 09:27:18;;;;;;;3.60;1.67;;;14.20;95.20;;;;;;5050355;28;20043;-62
2023/05/18 09:29:54;;;;;;;4.47;1.40;;;14.40;95.50;;;;;;5050166;28;20125;-62
2023/05/18 09:32:21;;;;;;;6.88;1.88;;;14.40;95.50;;;;;;5048685;28;20084;-62
2023/05/18 09:34:47;;;;;;;6.10;1.90;;;14.40;95.30;;;;;;5048942;28;20463;-61
2023/05/18 09:37:20;;;;;;;5.97;2.00;;;14.40;95.10;;;;;;5049023;28;20525;-62
2023/05/18 09:40:13;;;;;;;8.05;1.83;;;14.60;95.50;;;;;;5049069;28;20480;-64
2023/05/18 09:42:41;;;;;;;4.07;1.48;;;14.70;94.80;;;;;;5048862;28;20056;-62
2023/05/18 09:45:25;;;;;;;5.70;1.65;;;14.80;95.20;;;;;;5048752;28;20041;-63
2023/05/18 09:47:51;;;;;;;4.63;1.90;;;14.80;94.60;;;;;;5048764;28;20047;-61
2023/05/18 09:50:21;;;;;;;6.47;2.33;;;14.70;93.70;;;;;;5048810;28;20405;-63
2023/05/18 09:52:50;;;;;;;6.20;1.50;;;14.80;94.50;;;;;;5049032;28;20495;-63
2023/05/18 09:55:17;;;;;;;4.80;1.50;;;15.00;94.50;;;;;;5048709;28;20037;-61
2023/05/18 09:57:45;;;;;;;7.07;2.00;;;15.20;94.10;;;;;;5050002;28;20038;-64
2023/05/18 10:00:13;;;;;;;6.13;1.83;;;15.30;93.20;;;;;;5048911;28;20124;-60
2023/05/18 10:02:47;;;;;;;6.53;1.95;;;15.30;93.70;;;;;;5048405;28;20037;-62
2023/05/18 10:05:21;;;;;;;11.00;2.20;;;15.30;93.20;;;;;;5048796;28;20037;-63
2023/05/18 10:07:47;;;;;;;2.60;1.40;;;15.40;92.30;;;;;;5048457;28;20048;-64
2023/05/18 10:10:17;;;;;;;6.05;1.80;;;15.40;92.40;;;;;;5049567;28;20048;-65
2023/05/18 10:12:43;;;;;;;4.90;1.70;;;15.40;93.00;;;;;;5048580;28;20124;-62
2023/05/18 10:15:13;;;;;;;5.30;1.90;;;15.60;92.50;;;;;;5048949;28;20455;-64
2023/05/18 10:17:39;;;;;;;7.90;1.48;;;15.80;92.90;;;;;;5050000;28;20087;-62
2023/05/18 10:20:09;;;;;;;5.05;1.80;;;15.90;92.70;;;;;;5044614;28;20500;-62
2023/05/18 10:22:36;;;;;;;5.70;1.83;;;16.00;92.70;;;;;;5048305;28;20325;-61
2023/05/18 10:25:07;;;;;;;7.85;1.83;;;16.10;92.20;;;;;;5052194;28;20504;-61
2023/05/18 10:27:35;;;;;;;7.88;1.75;;;16.10;92.00;;;;;;5053374;28;20037;-60
2023/05/18 10:30:04;;;;;;;8.75;2.05;;;16.00;91.30;;;;;;5052319;28;20479;-62
2023/05/18 10:32:33;;;;;;;6.88;2.08;;;15.90;91.40;;;;;;5051998;28;20041;-64
2023/05/18 10:34:59;;;;;;;6.38;1.70;;;16.00;92.00;;;;;;5052043;28;20040;-61
2023/05/18 10:37:29;;;;;;;6.47;1.70;;;16.00;91.00;;;;;;5051664;28;20045;-62
2023/05/18 10:39:57;;;;;;;4.55;1.52;;;15.90;91.00;;;;;;5051839;28;20103;-63
2023/05/18 10:42:24;;;;;;;5.13;1.70;;;15.80;91.20;;;;;;5053067;28;20037;-62
2023/05/18 10:44:52;;;;;;;6.55;1.90;;;15.80;91.20;;;;;;5051529;28;20036;-61
2023/05/18 10:47:18;;;;;;;7.28;1.92;;;16.00;91.70;;;;;;5034977;28;20049;-62
2023/05/18 10:49:48;;;;;;;8.20;1.77;;;16.20;91.50;;;;;;5051524;28;20131;-61
2023/05/18 10:52:16;;;;;;;6.13;2.10;;;16.40;91.60;;;;;;5051889;28;20053;-61
2023/05/18 10:54:42;;;;;;;5.70;1.80;;;16.40;90.80;;;;;;5052645;28;20111;-62
2023/05/18 10:57:12;;;;;;;6.05;1.90;;;16.20;90.40;;;;;;5051340;28;20125;-60
2023/05/18 10:59:43;;;;;;;5.13;1.35;;;16.30;90.00;;;;;;5035002;28;20110;-60
2023/05/18 11:02:12;;;;;;;4.53;1.70;;;16.50;90.70;;;;;;5052595;28;20386;-61
2023/05/18 11:04:42;;;;;;;5.72;1.70;;;16.60;91.20;;;;;;5051217;28;20048;-63
2023/05/18 11:07:12;;;;;;;5.93;2.60;;;16.70;90.50;;;;;;5051509;28;20052;-62
2023/05/18 11:09:41;;;;;;;7.65;2.33;;;16.90;91.50;;;;;;5052083;28;20083;-60
2023/05/18 11:12:16;;;;;;;5.97;1.83;;;17.00;91.00;;;;;;5051286;28;20480;-62
2023/05/18 11:14:50;;;;;;;3.58;1.73;;;17.00;88.40;;;;;;5052331;28;20385;-62
2023/05/18 11:17:24;;;;;;;6.03;2.00;;;17.00;89.40;;;;;;5051254;28;20045;-61
2023/05/18 11:20:07;;;;;;;5.55;1.52;;;16.90;88.00;;;;;;5049748;28;20045;-63
2023/05/18 11:22:58;;;;;;;8.57;1.85;;;17.00;89.40;;;;;;5051232;28;20049;-63
2023/05/18 11:25:27;;;;;;;6.63;2.42;;;17.00;88.10;;;;;;5051302;28;20044;-63
2023/05/18 11:28:00;;;;;;;5.20;1.77;;;17.00;88.80;;;;;;5052092;28;20037;-61
2023/05/18 11:30:44;;;;;;;7.60;2.17;;;17.00;88.50;;;;;;5051168;28;20496;-64
2023/05/18 11:33:10;;;;;;;6.82;2.20;;;17.00;88.00;;;;;;5052306;28;20063;-62
2023/05/18 11:36:12;;;;;;;5.90;1.95;;;16.90;88.80;;;;;;5049723;28;20040;-63
2023/05/18 11:38:47;;;;;;;5.67;2.13;;;17.10;89.80;;;;;;5052277;28;20041;-63
2023/05/18 11:41:38;;;;;;;7.30;1.77;;;17.20;86.90;;;;;;5051985;28;20092;-62
2023/05/18 11:44:22;;;;;;;6.13;1.80;;;17.30;87.60;;;;;;5050309;28;20047;-65
2023/05/18 11:46:50;;;;;;;6.05;1.70;;;17.20;88.20;;;;;;5051869;28;20507;-62
2023/05/18 11:49:17;;;;;;;8.38;2.08;;;17.20;86.40;;;;;;5050334;28;20044;-63
2023/05/18 11:52:04;;;;;;;5.47;1.70;;;17.10;86.90;;;;;;5051694;28;20163;-61
2023/05/18 11:54:35;;;;;;;8.02;1.90;;;17.00;88.70;;;;;;5050684;28;20120;-63
2023/05/18 11:57:01;;;;;;;7.53;1.95;;;17.00;87.00;;;;;;5050025;28;20039;-63
2023/05/18 11:59:32;;;;;;;5.75;1.92;;;17.00;89.20;;;;;;5050229;28;20094;-63
2023/05/18 12:02:00;;;;;;;5.13;1.77;;;17.00;86.80;;;;;;5050071;28;20047;-61
2023/05/18 12:04:26;;;;;;;6.05;1.88;;;16.90;88.10;;;;;;5050311;28;20044;-62
2023/05/18 12:06:53;;;;;;;7.63;1.98;;;17.00;88.00;;;;;;5050454;28;20045;-61
2023/05/18 12:09:19;;;;;;;7.18;2.58;;;17.00;87.70;;;;;;5051357;28;20162;-61
2023/05/18 12:11:45;;;;;;;5.20;1.52;;;17.00;85.70;;;;;;5051556;28;20440;-61
2023/05/18 12:14:11;;;;;;;5.65;1.80;;;16.90;85.30;;;;;;5051256;28;20074;-64
2023/05/18 12:16:39;;;;;;;5.53;1.63;;;17.00;85.30;;;;;;5051475;28;20040;-61
2023/05/18 12:19:06;;;;;;;7.45;1.70;;;17.00;85.30;;;;;;5050989;28;20037;-65
2023/05/18 12:21:35;;;;;;;4.45;1.60;;;17.10;84.90;;;;;;5051027;28;20056;-63
2023/05/18 12:24:01;;;;;;;4.35;1.60;;;17.20;86.80;;;;;;5049883;28;20056;-62
2023/05/18 12:26:28;;;;;;;4.45;1.80;;;17.20;85.60;;;;;;5051320;28;20033;-62
2023/05/18 12:28:54;;;;;;;6.72;2.13;;;17.20;85.60;;;;;;5049873;28;20056;-61
2023/05/18 12:31:20;;;;;;;6.95;2.13;;;17.20;84.80;;;;;;5049864;28;20507;-62
2023/05/18 12:33:46;;;;;;;6.65;1.83;;;17.20;85.30;;;;;;5050961;28;20037;-61
2023/05/18 12:36:15;;;;;;;8.30;2.17;;;17.20;84.90;;;;;;5049844;28;20037;-63
2023/05/18 12:38:41;;;;;;;6.50;1.70;;;17.10;84.00;;;;;;5049529;28;20071;-63
2023/05/18 12:41:07;;;;;;;11.15;3.08;;;17.10;84.80;;;;;;5050720;28;20112;-60
2023/05/18 12:43:34;;;;;;;5.35;1.75;;;17.10;83.70;;;;;;5049437;28;20048;-61
2023/05/18 12:46:04;;;;;;;6.82;2.08;;;17.10;84.30;;;;;;5049127;28;20033;-61
2023/05/18 12:48:37;;;;;;;7.57;1.88;;;17.10;84.00;;;;;;5050466;28;20115;-62
2023/05/18 12:51:03;;;;;;;7.53;2.20;;;17.00;84.20;;;;;;5050686;28;20036;-62
2023/05/18 12:53:41;;;;;;;4.75;2.15;;;17.00;84.60;;;;;;5049159;28;20055;-61
2023/05/18 12:56:10;;;;;;;4.30;1.88;;;17.00;83.10;;;;;;5049323;28;20055;-61
2023/05/18 12:58:36;;;;;;;5.88;2.00;;;16.90;83.20;;;;;;5049203;28;20045;-60